Time;durP1;ratioP1;P1;durP2;ratioP2;P2;SDS_P1;SDS_P2;PMS_P1;PMS_P2;Temp;Humidity;BMP_temperature;BMP_pressure;BME280_temperature;BME280_humidity;BME280_pressure;Samples;Min_cycle;Max_cycle;Signal;HPM_P1;HPM_P2
2022/01/26 00:06:33;;;;;;;81.68;42.00;;;4.40;99.90;;;;;;5092318;28;20056;-73
2022/01/26 00:08:59;;;;;;;82.28;41.05;;;4.30;99.90;;;;;;5093202;28;20048;-73
2022/01/26 00:11:27;;;;;;;85.70;41.57;;;4.30;99.90;;;;;;5092456;28;20054;-73
2022/01/26 00:13:54;;;;;;;87.47;44.35;;;4.30;99.90;;;;;;5093234;28;20106;-73
2022/01/26 00:16:27;;;;;;;88.28;43.15;;;4.30;99.90;;;;;;5093549;28;20046;-73
2022/01/26 00:19:00;;;;;;;88.78;41.35;;;4.30;99.90;;;;;;5093168;28;20160;-73
2022/01/26 00:21:33;;;;;;;86.32;41.20;;;4.40;99.90;;;;;;5075791;28;20048;-73
2022/01/26 00:26:47;;;;;;;87.65;41.53;;;4.40;99.90;;;;;;5093349;28;20397;-73
2022/01/26 00:29:16;;;;;;;94.82;44.50;;;4.40;99.90;;;;;;5093561;28;20058;-73
2022/01/26 00:40:36;;;;;;;84.40;39.35;;;4.40;99.90;;;;;;5093246;28;20056;-73
2022/01/26 00:43:26;;;;;;;84.93;41.33;;;4.30;99.90;;;;;;5074904;28;20055;-73
2022/01/26 00:45:55;;;;;;;84.07;41.95;;;4.30;99.90;;;;;;5092255;28;20046;-74
2022/01/26 00:48:21;;;;;;;88.40;42.40;;;4.30;99.90;;;;;;5092197;28;20212;-73
2022/01/26 00:50:51;;;;;;;92.85;43.85;;;4.30;99.90;;;;;;5092668;28;20496;-74
2022/01/26 00:53:24;;;;;;;83.53;41.05;;;4.30;99.90;;;;;;5092254;28;20488;-73
2022/01/26 00:55:51;;;;;;;79.65;40.83;;;4.30;99.90;;;;;;5092357;28;20485;-74
2022/01/26 00:58:16;;;;;;;87.72;42.42;;;4.30;99.90;;;;;;5091712;28;20503;-73
2022/01/26 01:00:42;;;;;;;91.77;43.00;;;4.30;99.90;;;;;;5092976;28;20044;-73
2022/01/26 01:03:08;;;;;;;92.97;42.17;;;4.30;99.90;;;;;;5058250;28;20152;-73
2022/01/26 01:05:44;;;;;;;94.67;44.17;;;4.20;99.90;;;;;;5093031;28;20047;-73
2022/01/26 01:08:15;;;;;;;91.90;42.53;;;4.30;99.90;;;;;;5092590;28;20105;-73
2022/01/26 01:10:44;;;;;;;91.18;41.97;;;4.20;99.90;;;;;;5092928;28;20052;-73
2022/01/26 01:13:15;;;;;;;93.35;43.65;;;4.30;99.90;;;;;;5074957;28;20079;-73
2022/01/26 01:15:42;;;;;;;88.55;40.65;;;4.30;99.90;;;;;;5092768;28;20119;-73
2022/01/26 01:18:21;;;;;;;90.53;43.28;;;4.30;99.90;;;;;;5091485;28;20056;-73
2022/01/26 01:30:40;;;;;;;99.10;45.67;;;4.30;99.90;;;;;;5091676;28;20540;-73
2022/01/26 01:33:08;;;;;;;89.90;41.95;;;4.20;99.90;;;;;;5092354;28;20055;-73
2022/01/26 01:35:38;;;;;;;98.55;44.40;;;4.20;99.90;;;;;;5091267;28;20040;-73
2022/01/26 01:38:13;;;;;;;93.90;41.75;;;4.20;99.90;;;;;;5092196;28;20044;-73
2022/01/26 01:40:43;;;;;;;87.88;40.25;;;4.20;99.90;;;;;;5092863;28;20177;-73
2022/01/26 01:43:09;;;;;;;89.53;43.28;;;4.20;99.90;;;;;;5091217;28;20048;-73
2022/01/26 01:45:45;;;;;;;93.72;42.30;;;4.20;99.90;;;;;;5092206;28;20126;-72
2022/01/26 01:48:14;;;;;;;93.65;44.08;;;4.20;99.90;;;;;;5092202;28;20152;-73
2022/01/26 01:50:42;;;;;;;91.55;43.35;;;4.20;99.90;;;;;;5092602;28;20395;-73
2022/01/26 01:53:13;;;;;;;86.80;42.15;;;4.20;99.90;;;;;;5092111;28;20048;-73
2022/01/26 01:55:40;;;;;;;96.90;43.40;;;4.20;99.90;;;;;;5092361;28;20036;-73
2022/01/26 01:58:07;;;;;;;88.13;41.08;;;4.20;99.90;;;;;;5074210;28;20434;-73
2022/01/26 02:00:33;;;;;;;88.80;43.60;;;4.20;99.90;;;;;;5092560;28;20058;-73
2022/01/26 02:03:00;;;;;;;78.85;39.25;;;4.20;99.90;;;;;;5092099;28;20048;-73
2022/01/26 02:05:26;;;;;;;84.93;42.95;;;4.20;99.90;;;;;;5095803;28;20098;-73
2022/01/26 02:07:52;;;;;;;82.83;43.07;;;4.20;99.90;;;;;;5095902;28;20095;-73
2022/01/26 02:10:20;;;;;;;77.07;41.83;;;4.20;99.90;;;;;;5094316;28;20051;-73
2022/01/26 02:12:50;;;;;;;85.13;43.47;;;4.20;99.90;;;;;;5094569;28;20052;-72
2022/01/26 02:15:21;;;;;;;80.95;40.13;;;4.20;99.90;;;;;;5094281;28;20966;-73
2022/01/26 03:00:47;;;;;;;58.33;36.47;;;4.30;99.90;;;;;;5094059;28;20048;-72
2022/01/26 03:03:27;;;;;;;59.00;35.83;;;4.20;99.90;;;;;;5094308;28;20492;-73
2022/01/26 03:06:04;;;;;;;59.15;34.13;;;4.20;99.90;;;;;;5094896;28;20036;-72
2022/01/26 03:08:35;;;;;;;59.47;37.25;;;4.20;99.90;;;;;;5093523;28;20052;-72
2022/01/26 03:11:08;;;;;;;58.65;34.35;;;4.20;99.90;;;;;;5077050;28;20047;-72
2022/01/26 03:13:36;;;;;;;63.80;37.05;;;4.20;99.90;;;;;;5094897;28;20447;-72
2022/01/26 03:16:14;;;;;;;57.03;32.08;;;4.20;99.90;;;;;;5093635;28;20076;-74
2022/01/26 03:21:08;;;;;;;57.17;33.10;;;4.20;99.90;;;;;;5094231;28;20090;-73
2022/01/26 03:29:15;;;;;;;62.22;36.20;;;4.10;99.90;;;;;;5093551;28;20050;-72
2022/01/26 03:34:12;;;;;;;73.30;37.70;;;4.20;99.90;;;;;;5094328;28;20093;-72
2022/01/26 03:36:51;;;;;;;65.85;34.72;;;4.20;99.90;;;;;;5094136;28;20516;-72
2022/01/26 03:39:19;;;;;;;64.30;33.90;;;4.20;99.90;;;;;;5092996;28;20143;-72
2022/01/26 03:41:49;;;;;;;59.50;33.50;;;4.20;99.90;;;;;;5094140;28;20411;-72
2022/01/26 03:44:16;;;;;;;67.10;35.58;;;4.20;99.90;;;;;;5092717;28;20048;-73
2022/01/26 03:46:42;;;;;;;64.60;35.22;;;4.20;99.90;;;;;;5093788;28;20529;-72
2022/01/26 03:49:09;;;;;;;59.78;32.85;;;4.20;99.90;;;;;;5093794;28;20408;-73
2022/01/26 03:51:36;;;;;;;68.55;34.15;;;4.20;99.90;;;;;;5094052;28;20419;-72
2022/01/26 03:54:04;;;;;;;63.33;34.22;;;4.20;99.90;;;;;;5093874;28;20060;-72
2022/01/26 03:56:30;;;;;;;68.80;33.58;;;4.20;99.90;;;;;;5093484;28;20040;-72
2022/01/26 03:58:55;;;;;;;67.93;35.70;;;4.20;99.90;;;;;;5092794;28;20085;-72
2022/01/26 04:01:22;;;;;;;69.47;34.13;;;4.20;99.90;;;;;;5092460;28;20170;-72
2022/01/26 04:03:48;;;;;;;66.68;34.33;;;4.20;99.90;;;;;;5092457;28;20044;-73
2022/01/26 04:06:15;;;;;;;66.65;33.63;;;4.20;99.90;;;;;;5093301;28;20093;-73
2022/01/26 04:08:43;;;;;;;62.22;33.72;;;4.10;99.90;;;;;;5092659;28;20051;-73
2022/01/26 04:11:27;;;;;;;61.25;32.58;;;4.10;99.90;;;;;;5093245;28;20055;-73
2022/01/26 04:13:53;;;;;;;68.18;33.63;;;4.10;99.90;;;;;;5078407;28;20047;-72
2022/01/26 04:16:20;;;;;;;67.00;33.17;;;4.10;99.90;;;;;;5093104;28;20051;-72
2022/01/26 04:18:46;;;;;;;62.13;32.90;;;4.10;99.90;;;;;;5059125;28;20048;-72
2022/01/26 04:21:35;;;;;;;63.13;33.30;;;4.10;99.90;;;;;;5092138;28;20044;-73
2022/01/26 04:24:06;;;;;;;60.38;31.02;;;4.10;99.90;;;;;;5093450;28;20047;-73
2022/01/26 04:26:43;;;;;;;61.95;31.98;;;4.10;99.90;;;;;;5092759;28;20040;-73
2022/01/26 04:29:14;;;;;;;65.28;33.25;;;4.10;99.90;;;;;;5092813;28;20051;-74
2022/01/26 04:31:40;;;;;;;64.68;31.73;;;4.00;99.90;;;;;;5092430;28;20491;-73
2022/01/26 04:34:06;;;;;;;65.40;32.13;;;4.10;99.90;;;;;;5093172;28;20048;-73
2022/01/26 04:36:41;;;;;;;65.00;31.47;;;4.10;99.90;;;;;;5091640;28;20150;-73
2022/01/26 04:39:12;;;;;;;61.07;31.53;;;4.00;99.90;;;;;;5093283;28;20054;-72
2022/01/26 04:41:46;;;;;;;61.60;32.05;;;4.10;99.90;;;;;;5092002;28;20468;-73
2022/01/26 04:44:20;;;;;;;60.28;31.08;;;4.00;99.90;;;;;;5092879;28;20044;-73
2022/01/26 04:46:46;;;;;;;61.92;30.63;;;4.00;99.90;;;;;;5092989;28;20559;-73
2022/01/26 04:49:12;;;;;;;60.13;31.10;;;4.00;99.90;;;;;;5092881;28;20123;-73
2022/01/26 04:51:38;;;;;;;62.33;32.70;;;3.90;99.90;;;;;;5091809;28;20044;-73
2022/01/26 04:54:04;;;;;;;63.97;33.25;;;4.00;99.90;;;;;;5092091;28;20040;-72
2022/01/26 04:56:30;;;;;;;65.20;31.33;;;4.00;99.90;;;;;;5074578;28;20089;-73
2022/01/26 04:58:55;;;;;;;59.77;30.80;;;3.90;99.90;;;;;;5091755;28;20048;-73
2022/01/26 05:01:21;;;;;;;60.33;30.97;;;4.00;99.90;;;;;;5091705;28;20047;-73
2022/01/26 05:03:47;;;;;;;62.30;30.73;;;4.00;99.90;;;;;;5093115;28;20472;-73
2022/01/26 05:06:12;;;;;;;64.67;32.63;;;4.00;99.90;;;;;;5091598;28;20043;-74
2022/01/26 05:08:38;;;;;;;60.37;32.03;;;4.00;99.90;;;;;;5075068;28;20460;-73
2022/01/26 05:11:06;;;;;;;63.90;33.57;;;4.00;99.90;;;;;;5091964;28;20036;-72
2022/01/26 05:13:31;;;;;;;65.90;33.35;;;3.90;99.90;;;;;;5092529;28;20055;-73
2022/01/26 05:15:57;;;;;;;66.33;30.97;;;3.90;99.90;;;;;;5092939;28;20044;-72
2022/01/26 05:18:24;;;;;;;69.70;32.47;;;3.90;99.90;;;;;;5092220;28;20094;-75
2022/01/26 05:20:50;;;;;;;67.15;31.77;;;3.90;99.90;;;;;;5058711;28;20059;-73
2022/01/26 05:23:16;;;;;;;63.35;31.98;;;3.90;99.90;;;;;;5092448;28;20084;-73
2022/01/26 05:25:42;;;;;;;63.10;31.50;;;3.90;99.90;;;;;;5092764;28;20079;-72
2022/01/26 05:28:08;;;;;;;64.77;34.67;;;3.90;99.90;;;;;;5091561;28;20463;-73
2022/01/26 05:30:33;;;;;;;58.93;31.23;;;3.90;99.90;;;;;;5092436;28;20073;-72
2022/01/26 05:32:59;;;;;;;59.07;30.17;;;3.90;99.90;;;;;;5091470;28;20434;-75
2022/01/26 05:35:25;;;;;;;59.83;30.47;;;3.90;99.90;;;;;;5092273;28;20127;-73
2022/01/26 05:37:51;;;;;;;68.50;32.37;;;3.80;99.90;;;;;;5092753;28;20048;-72
2022/01/26 05:40:16;;;;;;;60.67;32.27;;;3.90;99.90;;;;;;5077465;28;20152;-73
2022/01/26 05:42:42;;;;;;;67.20;33.37;;;3.90;99.90;;;;;;5096102;28;20048;-72
2022/01/26 05:45:18;;;;;;;60.37;30.43;;;3.90;99.90;;;;;;5078580;28;20083;-72
2022/01/26 05:47:44;;;;;;;62.05;31.33;;;3.90;99.90;;;;;;5095898;28;20056;-72
2022/01/26 05:50:10;;;;;;;63.90;33.30;;;3.90;99.90;;;;;;5096378;28;20449;-73
2022/01/26 05:52:35;;;;;;;60.63;30.70;;;3.90;99.90;;;;;;5095910;28;20137;-72
2022/01/26 05:55:01;;;;;;;61.60;32.77;;;3.90;99.90;;;;;;5096125;28;20044;-73
2022/01/26 05:57:27;;;;;;;60.73;31.53;;;4.00;99.90;;;;;;5095787;28;20046;-73
2022/01/26 05:59:54;;;;;;;65.07;33.67;;;4.00;99.90;;;;;;5078261;28;20048;-73
2022/01/26 06:02:20;;;;;;;60.72;33.42;;;4.00;99.90;;;;;;5094500;28;20480;-73
2022/01/26 06:04:46;;;;;;;66.20;34.83;;;4.00;99.90;;;;;;5094837;28;20088;-73
2022/01/26 06:07:12;;;;;;;63.07;33.47;;;3.90;99.90;;;;;;5095015;28;20101;-73
2022/01/26 06:09:37;;;;;;;65.37;34.83;;;4.00;99.90;;;;;;5094692;28;20286;-73
2022/01/26 06:12:04;;;;;;;69.30;34.90;;;3.90;99.90;;;;;;5095819;28;20043;-73
2022/01/26 06:14:30;;;;;;;63.85;32.25;;;4.00;99.90;;;;;;5095516;28;20050;-73
2022/01/26 06:16:55;;;;;;;61.40;34.33;;;4.00;99.90;;;;;;5095413;28;20040;-73
2022/01/26 06:19:21;;;;;;;62.57;35.07;;;3.90;99.90;;;;;;5094106;28;20056;-73
2022/01/26 06:21:47;;;;;;;65.17;34.80;;;4.00;99.90;;;;;;5095668;28;20044;-72
2022/01/26 06:24:12;;;;;;;65.53;34.60;;;4.00;99.90;;;;;;5095808;28;20043;-72
2022/01/26 06:26:40;;;;;;;64.30;32.63;;;4.00;99.90;;;;;;5094188;28;20378;-72
2022/01/26 06:29:06;;;;;;;65.22;33.63;;;4.00;99.90;;;;;;5061324;28;20055;-72
2022/01/26 06:31:34;;;;;;;67.87;36.53;;;3.90;99.90;;;;;;5095161;28;20040;-73
2022/01/26 06:34:02;;;;;;;65.55;34.20;;;4.00;99.90;;;;;;5095458;28;20040;-72
2022/01/26 06:36:28;;;;;;;61.22;34.05;;;3.90;99.90;;;;;;5094704;28;20503;-73
2022/01/26 06:38:54;;;;;;;63.37;33.90;;;3.90;99.90;;;;;;5095476;28;20040;-72
2022/01/26 06:41:25;;;;;;;69.80;34.42;;;4.00;99.90;;;;;;5095283;28;20286;-72
2022/01/26 06:44:01;;;;;;;66.38;34.17;;;4.00;99.90;;;;;;5094538;28;20059;-72
2022/01/26 06:46:37;;;;;;;64.82;35.72;;;4.00;99.90;;;;;;5093531;28;20069;-73
2022/01/26 06:51:34;;;;;;;67.20;37.80;;;4.00;99.90;;;;;;5093916;28;20056;-72
2022/01/26 06:54:00;;;;;;;68.33;37.70;;;4.00;99.90;;;;;;5095244;28;20040;-72
2022/01/26 06:56:26;;;;;;;73.10;38.07;;;4.00;99.90;;;;;;5094695;28;20556;-73
2022/01/26 06:58:51;;;;;;;68.87;37.03;;;4.00;99.90;;;;;;5095385;28;20044;-72
2022/01/26 07:01:17;;;;;;;74.17;39.50;;;4.00;99.90;;;;;;5094020;28;20049;-72
2022/01/26 07:03:43;;;;;;;72.73;39.57;;;4.00;99.90;;;;;;5093636;28;20039;-72
2022/01/26 07:06:08;;;;;;;72.53;39.47;;;4.00;99.90;;;;;;5093641;28;20048;-72
2022/01/26 07:08:34;;;;;;;68.27;36.80;;;4.00;99.90;;;;;;5094554;28;20056;-73
2022/01/26 07:11:00;;;;;;;72.37;39.10;;;4.00;99.90;;;;;;5093962;28;20157;-72
2022/01/26 07:13:26;;;;;;;73.83;39.87;;;4.10;99.90;;;;;;5094418;28;20044;-72
2022/01/26 07:21:27;;;;;;;81.03;44.90;;;4.10;99.90;;;;;;5093604;28;20052;-72
2022/01/26 07:23:55;;;;;;;85.63;45.88;;;4.10;99.90;;;;;;5094306;28;20097;-72
2022/01/26 07:26:21;;;;;;;83.47;45.67;;;4.10;99.90;;;;;;5094316;28;20470;-72
2022/01/26 07:28:47;;;;;;;84.63;46.20;;;4.10;99.90;;;;;;5094087;28;20112;-73
2022/01/26 07:31:13;;;;;;;86.53;45.53;;;4.10;99.90;;;;;;5094192;28;20051;-72
2022/01/26 07:33:39;;;;;;;91.23;48.33;;;4.10;99.90;;;;;;5093013;28;20278;-72
2022/01/26 07:36:05;;;;;;;85.13;46.13;;;4.20;99.90;;;;;;5092919;28;20302;-72
2022/01/26 07:38:32;;;;;;;87.70;47.25;;;4.20;99.90;;;;;;5092998;28;20139;-72
2022/01/26 07:40:57;;;;;;;81.90;45.10;;;4.20;99.90;;;;;;5094129;28;20044;-72
2022/01/26 07:43:24;;;;;;;90.10;47.50;;;4.20;99.90;;;;;;5094136;28;20067;-72
2022/01/26 07:45:50;;;;;;;88.07;47.75;;;4.20;99.90;;;;;;5093460;28;20039;-73
2022/01/26 07:48:16;;;;;;;96.33;50.00;;;4.20;99.90;;;;;;5092678;28;20371;-72
2022/01/26 07:50:42;;;;;;;90.17;48.47;;;4.30;99.90;;;;;;5093646;28;20297;-72
2022/01/26 07:53:14;;;;;;;90.28;48.53;;;4.30;99.90;;;;;;5092972;28;20050;-72
2022/01/26 07:55:40;;;;;;;87.68;48.25;;;4.30;99.90;;;;;;5093527;28;20054;-73
2022/01/26 07:58:08;;;;;;;87.35;46.33;;;4.30;99.90;;;;;;5093947;28;20048;-72
2022/01/26 08:00:34;;;;;;;90.90;46.97;;;4.30;99.90;;;;;;5093504;28;20044;-72
2022/01/26 08:03:00;;;;;;;83.35;45.20;;;4.30;99.90;;;;;;5093556;28;20048;-72
2022/01/26 08:05:26;;;;;;;77.33;43.97;;;4.30;99.90;;;;;;5093718;28;20459;-72
2022/01/26 08:07:52;;;;;;;82.87;46.97;;;4.30;99.90;;;;;;5092114;28;20105;-72
2022/01/26 08:10:18;;;;;;;81.90;45.30;;;4.30;99.90;;;;;;5092620;28;20040;-72
2022/01/26 08:12:43;;;;;;;78.37;44.20;;;4.40;99.90;;;;;;5092033;28;20078;-72
2022/01/26 08:15:09;;;;;;;73.07;41.53;;;4.40;99.90;;;;;;5093533;28;20048;-72
2022/01/26 08:17:36;;;;;;;78.00;44.90;;;4.40;99.90;;;;;;5092012;28;20516;-72
2022/01/26 08:20:05;;;;;;;76.38;42.90;;;4.40;99.90;;;;;;5093605;28;20042;-72
2022/01/26 08:22:32;;;;;;;72.07;41.75;;;4.40;99.90;;;;;;5092233;28;20146;-72
2022/01/26 08:24:57;;;;;;;71.13;41.85;;;4.40;99.90;;;;;;5093693;28;20063;-72
2022/01/26 08:27:26;;;;;;;65.70;39.10;;;4.40;99.90;;;;;;5092397;28;20336;-72
2022/01/26 08:29:58;;;;;;;73.57;41.33;;;4.40;99.90;;;;;;5092979;28;20056;-72
2022/01/26 08:32:24;;;;;;;70.60;40.78;;;4.40;99.90;;;;;;5092411;28;20071;-73
2022/01/26 08:34:50;;;;;;;66.97;39.77;;;4.40;99.90;;;;;;5093008;28;20569;-73
2022/01/26 08:37:16;;;;;;;65.37;39.40;;;4.40;99.90;;;;;;5075022;28;20435;-73
2022/01/26 08:39:41;;;;;;;69.03;39.03;;;4.40;99.90;;;;;;5092899;28;20173;-73
2022/01/26 08:42:07;;;;;;;68.90;40.43;;;4.40;99.90;;;;;;5091958;28;20301;-72
2022/01/26 08:44:35;;;;;;;65.07;38.63;;;4.50;99.90;;;;;;5093405;28;20048;-72
2022/01/26 08:47:01;;;;;;;68.53;38.88;;;4.50;99.90;;;;;;5091510;28;20062;-72
2022/01/26 08:49:27;;;;;;;68.32;40.63;;;4.50;99.90;;;;;;5092217;28;20404;-72
2022/01/26 08:51:54;;;;;;;69.23;39.77;;;4.50;99.90;;;;;;5092729;28;20040;-73
2022/01/26 08:54:20;;;;;;;68.55;40.05;;;4.50;99.90;;;;;;5091853;28;20102;-72
2022/01/26 08:56:53;;;;;;;66.20;40.93;;;4.50;99.90;;;;;;5125124;28;20507;-72
2022/01/26 08:59:22;;;;;;;73.18;41.88;;;4.50;99.90;;;;;;5092246;28;20626;-72
2022/01/26 09:01:47;;;;;;;72.38;39.97;;;4.50;99.90;;;;;;5092623;28;20044;-72
2022/01/26 09:04:14;;;;;;;67.17;40.40;;;4.50;99.90;;;;;;5092582;28;20047;-73
2022/01/26 09:06:51;;;;;;;69.60;40.88;;;4.50;99.90;;;;;;5092632;28;20055;-74
2022/01/26 09:09:21;;;;;;;73.30;41.75;;;4.50;99.90;;;;;;5092940;28;20122;-72
2022/01/26 09:11:48;;;;;;;80.20;41.90;;;4.60;99.90;;;;;;5058201;28;20090;-73
2022/01/26 09:14:20;;;;;;;74.40;42.55;;;4.60;99.90;;;;;;5094687;28;20052;-75
2022/01/26 09:16:49;;;;;;;64.97;39.90;;;4.60;99.90;;;;;;5095468;28;20501;-74
2022/01/26 09:19:28;;;;;;;69.22;42.22;;;4.60;99.90;;;;;;5096037;28;20390;-73
2022/01/26 09:21:55;;;;;;;70.05;39.38;;;4.60;99.90;;;;;;5096591;28;20052;-74
2022/01/26 09:24:21;;;;;;;74.07;41.42;;;4.60;99.90;;;;;;5095850;28;20059;-74
2022/01/26 09:26:47;;;;;;;66.80;41.37;;;4.60;99.90;;;;;;5096516;28;20040;-74
2022/01/26 09:29:13;;;;;;;77.10;42.80;;;4.60;99.90;;;;;;5096397;28;20487;-74
2022/01/26 09:31:39;;;;;;;75.97;42.60;;;4.60;99.90;;;;;;5096416;28;20051;-80
2022/01/26 09:34:05;;;;;;;75.50;44.27;;;4.70;99.90;;;;;;5096781;28;20083;-73
2022/01/26 09:36:31;;;;;;;71.00;41.10;;;4.70;99.90;;;;;;5096478;28;20047;-74
2022/01/26 09:38:57;;;;;;;78.83;44.67;;;4.70;99.90;;;;;;5096272;28;20050;-73
2022/01/26 09:41:23;;;;;;;83.95;43.75;;;4.70;99.90;;;;;;5078643;28;20044;-73
2022/01/26 09:43:49;;;;;;;73.65;42.42;;;4.70;99.90;;;;;;5078056;28;20051;-73
2022/01/26 09:46:15;;;;;;;76.57;43.50;;;4.80;99.90;;;;;;5096453;28;20048;-73
2022/01/26 09:48:42;;;;;;;73.93;42.17;;;4.80;99.90;;;;;;5096299;28;20094;-81
2022/01/26 09:51:12;;;;;;;76.10;42.58;;;4.80;99.90;;;;;;5096630;28;20121;-74
2022/01/26 09:53:38;;;;;;;70.63;39.47;;;4.80;99.90;;;;;;5096336;28;20109;-74
2022/01/26 09:56:04;;;;;;;73.45;40.75;;;4.80;99.90;;;;;;5095949;28;20040;-75
2022/01/26 09:58:30;;;;;;;75.97;40.38;;;4.80;99.90;;;;;;5078474;28;20044;-74
2022/01/26 10:01:00;;;;;;;72.97;40.47;;;4.80;99.90;;;;;;5096030;28;20103;-73
2022/01/26 10:03:31;;;;;;;75.90;41.17;;;4.80;99.90;;;;;;5096289;28;20047;-74
2022/01/26 10:05:57;;;;;;;74.53;41.25;;;4.90;99.90;;;;;;5095662;28;20105;-76
2022/01/26 10:08:51;;;;;;;75.97;39.53;;;4.90;99.90;;;;;;5095844;28;20040;-74
2022/01/26 10:19:04;;;;;;;62.45;36.42;;;4.90;99.90;;;;;;5095670;28;20055;-74
2022/01/26 10:21:30;;;;;;;63.00;36.47;;;4.90;99.90;;;;;;5094755;28;20044;-74
2022/01/26 10:24:07;;;;;;;66.13;36.17;;;4.90;99.90;;;;;;5095630;28;20043;-74
2022/01/26 10:26:33;;;;;;;63.10;35.47;;;4.90;99.90;;;;;;5095928;28;20048;-74
2022/01/26 10:29:00;;;;;;;61.53;34.53;;;5.00;99.90;;;;;;5094479;28;20400;-74
2022/01/26 10:31:36;;;;;;;60.08;34.83;;;5.00;99.90;;;;;;5095035;28;20105;-73
2022/01/26 10:34:02;;;;;;;65.15;37.47;;;5.00;99.90;;;;;;5095179;28;20130;-74
2022/01/26 10:37:00;;;;;;;62.38;36.75;;;5.00;99.90;;;;;;5095310;28;20086;-76
2022/01/26 10:39:36;;;;;;;57.80;34.50;;;5.00;99.90;;;;;;5095351;28;20052;-82
2022/01/26 10:42:06;;;;;;;58.45;35.13;;;5.00;99.90;;;;;;5095134;28;20055;-83
2022/01/26 10:44:45;;;;;;;56.47;33.67;;;5.00;99.90;;;;;;5095396;28;20130;-84
2022/01/26 10:47:11;;;;;;;61.10;34.38;;;5.10;99.90;;;;;;5094720;28;20056;-87
2022/01/26 10:52:24;;;;;;;55.65;33.92;;;5.10;99.90;;;;;;5092062;28;20062;-93
2022/01/26 10:54:51;;;;;;;62.30;36.58;;;5.10;99.90;;;;;;5094880;28;20051;-88
2022/01/26 10:57:18;;;;;;;64.63;37.80;;;5.20;99.90;;;;;;5076926;28;20040;-83
2022/01/26 10:59:46;;;;;;;67.03;38.55;;;5.20;99.90;;;;;;5094151;28;20525;-82
2022/01/26 11:02:14;;;;;;;67.28;37.17;;;5.20;99.90;;;;;;5094674;28;20126;-84
2022/01/26 11:04:42;;;;;;;63.20;36.75;;;5.20;99.90;;;;;;5095052;28;20080;-81
2022/01/26 11:07:12;;;;;;;73.03;39.40;;;5.20;99.90;;;;;;5093643;28;20149;-83
2022/01/26 11:09:40;;;;;;;66.40;36.30;;;5.20;99.90;;;;;;5094074;28;20048;-82
2022/01/26 11:12:09;;;;;;;62.25;36.60;;;5.20;99.90;;;;;;5093048;28;20051;-83
2022/01/26 11:14:47;;;;;;;59.00;35.40;;;5.10;99.90;;;;;;5094701;28;20055;-89
2022/01/26 11:17:33;;;;;;;59.20;36.67;;;5.10;99.90;;;;;;5076377;28;20048;-89
2022/01/26 11:20:00;;;;;;;68.18;36.95;;;5.10;99.90;;;;;;5094185;28;20480;-82
2022/01/26 11:22:29;;;;;;;63.40;36.85;;;5.10;99.90;;;;;;5076755;28;20052;-77
2022/01/26 11:25:06;;;;;;;59.53;36.00;;;5.10;99.90;;;;;;5094308;28;20503;-79
2022/01/26 11:27:37;;;;;;;65.07;36.08;;;5.10;99.90;;;;;;5093582;28;20139;-83
2022/01/26 11:30:19;;;;;;;63.03;34.47;;;5.10;99.90;;;;;;5093075;28;20055;-86
2022/01/26 11:32:52;;;;;;;61.20;34.55;;;5.10;99.90;;;;;;5127675;27;20046;-77
2022/01/26 11:35:20;;;;;;;68.03;37.00;;;5.20;99.90;;;;;;5094524;28;20144;-75
2022/01/26 11:37:51;;;;;;;60.55;35.10;;;5.20;99.90;;;;;;5093685;28;20078;-76
2022/01/26 11:46:11;;;;;;;61.92;34.40;;;5.20;99.90;;;;;;5093841;28;20051;-79
2022/01/26 11:48:38;;;;;;;62.40;35.97;;;5.20;99.90;;;;;;5092439;28;20087;-74
2022/01/26 11:51:05;;;;;;;56.45;33.67;;;5.20;99.90;;;;;;5093773;28;20479;-73
2022/01/26 11:53:31;;;;;;;67.97;35.65;;;5.30;99.90;;;;;;5094155;28;20048;-73
2022/01/26 11:56:10;;;;;;;62.88;34.15;;;5.30;99.90;;;;;;5093543;28;20039;-81
2022/01/26 11:58:45;;;;;;;62.92;35.45;;;5.30;99.90;;;;;;5092972;28;20396;-72
2022/01/26 12:01:19;;;;;;;57.83;34.55;;;5.30;99.90;;;;;;5093409;28;20056;-72
2022/01/26 12:04:12;;;;;;;63.78;33.28;;;5.30;99.90;;;;;;5092558;28;20059;-72
2022/01/26 12:06:40;;;;;;;60.75;33.72;;;5.30;99.90;;;;;;5093428;28;20515;-73
2022/01/26 12:09:09;;;;;;;55.58;34.00;;;5.30;99.90;;;;;;5093397;28;20044;-73
2022/01/26 12:11:36;;;;;;;67.50;35.88;;;5.30;99.90;;;;;;5093688;28;20055;-74
2022/01/26 12:14:10;;;;;;;62.95;33.53;;;5.40;99.90;;;;;;5092361;28;20087;-74
2022/01/26 12:16:45;;;;;;;53.30;30.98;;;5.40;99.90;;;;;;5093401;28;20485;-74
2022/01/26 12:38:45;;;;;;;50.53;31.48;;;5.70;99.90;;;;;;5093272;28;20055;-74
2022/01/26 12:43:47;;;;;;;50.85;30.20;;;5.70;99.90;;;;;;5093386;28;20048;-75
2022/01/26 12:46:25;;;;;;;52.20;30.83;;;5.70;99.90;;;;;;5092894;28;20048;-75
2022/01/26 12:49:00;;;;;;;49.97;30.17;;;5.70;99.90;;;;;;5074012;28;20513;-84
2022/01/26 12:51:29;;;;;;;60.70;30.70;;;5.70;99.90;;;;;;5091996;28;20055;-81
2022/01/26 12:54:02;;;;;;;52.78;28.70;;;5.70;99.90;;;;;;5091845;28;20434;-82
2022/01/26 12:56:30;;;;;;;54.25;29.23;;;5.70;99.90;;;;;;5093046;28;20502;-80
2022/01/26 12:59:04;;;;;;;57.88;30.63;;;5.80;99.90;;;;;;5058387;28;20130;-76
2022/01/26 13:01:30;;;;;;;57.88;31.38;;;5.80;99.90;;;;;;5092356;28;20106;-77
2022/01/26 13:04:01;;;;;;;56.55;31.27;;;5.90;99.90;;;;;;5091417;28;20044;-78
2022/01/26 13:06:36;;;;;;;57.80;30.67;;;5.90;99.90;;;;;;5092942;28;20055;-81
2022/01/26 13:09:30;;;;;;;53.22;30.90;;;5.90;99.90;;;;;;5091932;28;20473;-81
2022/01/26 13:11:58;;;;;;;61.15;30.55;;;5.90;99.90;;;;;;5091981;28;20087;-84
2022/01/26 13:14:29;;;;;;;62.45;31.77;;;5.90;99.90;;;;;;5091283;28;20063;-82
2022/01/26 13:17:12;;;;;;;60.55;33.72;;;5.90;99.90;;;;;;5091337;28;20062;-83
2022/01/26 13:30:25;;;;;;;54.25;32.25;;;5.90;99.90;;;;;;5088647;28;20056;-79
2022/01/26 13:38:39;;;;;;;60.90;32.03;;;6.00;99.90;;;;;;5065883;28;20148;-78
2022/01/26 13:51:39;;;;;;;48.80;29.10;;;6.00;99.90;;;;;;5072706;28;20066;-72
2022/01/26 13:59:32;;;;;;;52.22;27.52;;;6.00;99.90;;;;;;5088199;28;20123;-80
2022/01/26 14:01:59;;;;;;;50.97;28.75;;;6.00;99.90;;;;;;5090295;28;20097;-84
2022/01/26 14:04:25;;;;;;;52.65;29.00;;;5.90;99.90;;;;;;5092691;28;20067;-79
2022/01/26 14:06:50;;;;;;;45.95;26.58;;;6.00;99.90;;;;;;5093436;28;20488;-84
2022/01/26 14:09:17;;;;;;;51.13;28.17;;;6.00;99.90;;;;;;5088903;28;20047;-81
2022/01/26 14:11:46;;;;;;;50.75;27.55;;;6.00;99.90;;;;;;5058699;28;20048;-80
2022/01/26 14:14:19;;;;;;;46.50;27.42;;;6.00;99.90;;;;;;5092378;28;20052;-80
2022/01/26 14:16:55;;;;;;;44.05;26.13;;;6.00;99.90;;;;;;5092129;28;20040;-79
2022/01/26 14:19:38;;;;;;;;;;;6.00;99.90;;;;;;5090846;28;20048;-77
2022/01/26 14:27:03;;;;;;;51.58;27.17;;;6.10;99.90;;;;;;5093047;28;20108;-77
2022/01/26 14:35:28;;;;;;;48.40;27.08;;;6.10;99.90;;;;;;5092573;28;20055;-77
2022/01/26 15:19:07;;;;;;;56.65;32.13;;;6.10;99.90;;;;;;5079056;28;20052;-75
2022/01/26 15:33:49;;;;;;;45.75;26.15;;;6.10;99.90;;;;;;5074124;28;20153;-71
2022/01/26 15:42:02;;;;;;;50.63;28.88;;;6.10;99.90;;;;;;5074241;28;20135;-72
2022/01/26 15:50:10;;;;;;;46.45;27.42;;;6.10;99.90;;;;;;5073874;28;20056;-72
2022/01/26 15:52:53;;;;;;;52.88;27.52;;;6.10;99.90;;;;;;5085364;28;20044;-74
2022/01/26 16:36:33;;;;;;;43.53;24.05;;;6.00;99.90;;;;;;5071958;28;20057;-77
2022/01/26 16:38:56;;;;;;;48.88;24.20;;;6.10;99.90;;;;;;5071559;28;20048;-77
2022/01/26 16:52:30;;;;;;;47.50;25.52;;;6.10;99.90;;;;;;5086021;28;20048;-76
2022/01/26 18:16:51;;;;;;;37.45;22.30;;;6.30;99.90;;;;;;5095593;28;20055;-73
2022/01/26 18:40:54;;;;;;;35.40;19.83;;;6.40;99.90;;;;;;5093838;28;20056;-72
2022/01/26 18:49:20;;;;;;;37.15;20.75;;;6.40;99.90;;;;;;5078719;28;20147;-76
2022/01/26 18:51:52;;;;;;;42.95;22.50;;;6.40;99.90;;;;;;5080929;28;20415;-80
2022/01/26 18:54:21;;;;;;;45.90;24.10;;;6.40;99.90;;;;;;5084839;28;20063;-83
2022/01/26 18:56:48;;;;;;;36.15;22.05;;;6.40;99.90;;;;;;5087904;28;20054;-76
2022/01/26 18:59:15;;;;;;;37.70;21.10;;;6.40;99.90;;;;;;5082184;28;20479;-79
2022/01/26 19:01:41;;;;;;;38.22;20.80;;;6.40;99.90;;;;;;5087820;28;20055;-81
2022/01/26 19:04:07;;;;;;;38.25;20.42;;;6.40;99.90;;;;;;5085591;28;20056;-83
2022/01/26 19:06:37;;;;;;;38.33;21.67;;;6.40;99.90;;;;;;5086040;28;20105;-80
2022/01/26 19:09:03;;;;;;;35.70;21.63;;;6.40;99.90;;;;;;5069657;28;20233;-81
2022/01/26 19:11:28;;;;;;;42.47;20.10;;;6.40;99.90;;;;;;5084805;28;20820;-83
2022/01/26 19:13:54;;;;;;;41.97;24.37;;;6.40;99.90;;;;;;5093490;28;20043;-79
2022/01/26 19:19:21;;;;;;;34.92;19.77;;;6.50;99.90;;;;;;5094189;28;20048;-76
2022/01/26 19:26:59;;;;;;;37.20;20.40;;;6.50;99.90;;;;;;5093624;28;20051;-76
2022/01/26 19:29:45;;;;;;;35.63;20.10;;;6.50;99.90;;;;;;5093243;28;20472;-76
2022/01/26 19:41:08;;;;;;;40.10;20.85;;;6.60;99.90;;;;;;5078840;28;20083;-75